sensor_id;sensor_type;location;lat;lon;timestamp;pressure;altitude;pressure_sealevel;temperature;humidity
34034;BME280;63481;52.588;22.472;2023-05-07T00:00:16;100876.21;;;7.24;64.51
34034;BME280;63481;52.588;22.472;2023-05-07T00:01:10;100877.73;;;7.20;64.33
34034;BME280;63481;52.588;22.472;2023-05-07T00:01:42;100875.23;;;7.18;64.15
34034;BME280;63481;52.588;22.472;2023-05-07T00:02:14;100872.96;;;7.15;64.33
34034;BME280;63481;52.588;22.472;2023-05-07T00:02:47;100876.81;;;7.14;64.43
34034;BME280;63481;52.588;22.472;2023-05-07T00:03:19;100879.23;;;7.16;64.57
34034;BME280;63481;52.588;22.472;2023-05-07T00:03:52;100878.00;;;7.13;64.85
34034;BME280;63481;52.588;22.472;2023-05-07T00:04:23;100878.60;;;7.09;65.12
34034;BME280;63481;52.588;22.472;2023-05-07T00:04:56;100885.11;;;7.08;65.17
34034;BME280;63481;52.588;22.472;2023-05-07T00:05:28;100890.31;;;7.05;65.45
34034;BME280;63481;52.588;22.472;2023-05-07T00:06:00;100882.30;;;6.99;65.40
34034;BME280;63481;52.588;22.472;2023-05-07T00:06:32;100885.21;;;6.98;66.22
34034;BME280;63481;52.588;22.472;2023-05-07T00:07:04;100885.25;;;6.95;66.21
34034;BME280;63481;52.588;22.472;2023-05-07T00:07:36;100884.75;;;6.93;66.76
34034;BME280;63481;52.588;22.472;2023-05-07T00:08:08;100887.08;;;6.96;66.57
34034;BME280;63481;52.588;22.472;2023-05-07T00:08:41;100886.61;;;6.95;66.67
34034;BME280;63481;52.588;22.472;2023-05-07T00:09:13;100887.79;;;6.96;66.56
34034;BME280;63481;52.588;22.472;2023-05-07T00:09:45;100890.39;;;6.93;66.66
34034;BME280;63481;52.588;22.472;2023-05-07T00:10:17;100887.83;;;6.94;66.63
34034;BME280;63481;52.588;22.472;2023-05-07T00:10:49;100889.23;;;6.94;66.55
34034;BME280;63481;52.588;22.472;2023-05-07T00:11:21;100890.55;;;6.92;66.48
34034;BME280;63481;52.588;22.472;2023-05-07T00:11:53;100894.33;;;6.88;66.70
34034;BME280;63481;52.588;22.472;2023-05-07T00:12:25;100894.37;;;6.86;66.81
34034;BME280;63481;52.588;22.472;2023-05-07T00:12:57;100893.27;;;6.85;67.04
34034;BME280;63481;52.588;22.472;2023-05-07T00:13:29;100889.23;;;6.86;67.06
34034;BME280;63481;52.588;22.472;2023-05-07T00:14:06;100894.49;;;6.85;67.37
34034;BME280;63481;52.588;22.472;2023-05-07T00:14:38;100891.27;;;6.82;67.26
34034;BME280;63481;52.588;22.472;2023-05-07T00:15:10;100892.54;;;6.84;67.33
34034;BME280;63481;52.588;22.472;2023-05-07T00:15:45;100890.92;;;6.86;67.56
34034;BME280;63481;52.588;22.472;2023-05-07T00:16:17;100897.15;;;6.82;67.37
34034;BME280;63481;52.588;22.472;2023-05-07T00:16:49;100896.02;;;6.82;67.45
34034;BME280;63481;52.588;22.472;2023-05-07T00:17:21;100898.58;;;6.83;67.69
34034;BME280;63481;52.588;22.472;2023-05-07T00:17:53;100901.52;;;6.79;67.58
34034;BME280;63481;52.588;22.472;2023-05-07T00:18:25;100897.77;;;6.76;67.88
34034;BME280;63481;52.588;22.472;2023-05-07T00:18:57;100897.80;;;6.72;67.78
34034;BME280;63481;52.588;22.472;2023-05-07T00:19:29;100900.14;;;6.75;68.05
34034;BME280;63481;52.588;22.472;2023-05-07T00:20:02;100897.48;;;6.74;67.77
34034;BME280;63481;52.588;22.472;2023-05-07T00:20:35;100895.23;;;6.72;68.29
34034;BME280;63481;52.588;22.472;2023-05-07T00:21:07;100895.81;;;6.73;68.11
34034;BME280;63481;52.588;22.472;2023-05-07T00:21:38;100892.21;;;6.72;68.47
34034;BME280;63481;52.588;22.472;2023-05-07T00:22:10;100898.84;;;6.68;68.62
34034;BME280;63481;52.588;22.472;2023-05-07T00:22:42;100898.77;;;6.64;68.81
34034;BME280;63481;52.588;22.472;2023-05-07T00:23:14;100907.66;;;6.63;68.69
34034;BME280;63481;52.588;22.472;2023-05-07T00:23:47;100910.42;;;6.65;68.67
34034;BME280;63481;52.588;22.472;2023-05-07T00:24:19;100896.81;;;6.65;68.94
34034;BME280;63481;52.588;22.472;2023-05-07T00:24:51;100900.13;;;6.66;68.31
34034;BME280;63481;52.588;22.472;2023-05-07T00:25:23;100905.13;;;6.64;68.65
34034;BME280;63481;52.588;22.472;2023-05-07T00:25:56;100901.96;;;6.64;68.69
34034;BME280;63481;52.588;22.472;2023-05-07T00:26:28;100903.66;;;6.61;68.50
34034;BME280;63481;52.588;22.472;2023-05-07T00:27:00;100901.45;;;6.62;69.07
34034;BME280;63481;52.588;22.472;2023-05-07T00:27:32;100900.44;;;6.60;68.72
34034;BME280;63481;52.588;22.472;2023-05-07T00:28:04;100900.20;;;6.62;68.52
34034;BME280;63481;52.588;22.472;2023-05-07T00:28:36;100897.42;;;6.63;69.18
34034;BME280;63481;52.588;22.472;2023-05-07T00:29:08;100895.83;;;6.58;69.38
34034;BME280;63481;52.588;22.472;2023-05-07T00:29:40;100902.52;;;6.58;69.28
34034;BME280;63481;52.588;22.472;2023-05-07T00:30:12;100899.14;;;6.62;69.42
34034;BME280;63481;52.588;22.472;2023-05-07T00:30:44;100903.34;;;6.62;69.13
34034;BME280;63481;52.588;22.472;2023-05-07T00:31:16;100905.16;;;6.57;69.25
34034;BME280;63481;52.588;22.472;2023-05-07T00:31:49;100903.63;;;6.54;69.28
34034;BME280;63481;52.588;22.472;2023-05-07T00:32:22;100907.25;;;6.59;69.38
34034;BME280;63481;52.588;22.472;2023-05-07T00:32:53;100905.98;;;6.61;69.28
34034;BME280;63481;52.588;22.472;2023-05-07T00:33:25;100909.80;;;6.63;69.16
34034;BME280;63481;52.588;22.472;2023-05-07T00:33:58;100920.33;;;6.58;69.10
34034;BME280;63481;52.588;22.472;2023-05-07T00:34:30;100907.38;;;6.56;69.09
34034;BME280;63481;52.588;22.472;2023-05-07T00:35:03;100901.78;;;6.57;69.29
34034;BME280;63481;52.588;22.472;2023-05-07T00:35:35;100910.27;;;6.60;69.23
34034;BME280;63481;52.588;22.472;2023-05-07T00:36:07;100906.25;;;6.56;69.56
34034;BME280;63481;52.588;22.472;2023-05-07T00:36:39;100908.94;;;6.58;69.62
34034;BME280;63481;52.588;22.472;2023-05-07T00:37:11;100910.89;;;6.58;69.54
34034;BME280;63481;52.588;22.472;2023-05-07T00:37:43;100910.16;;;6.56;69.48
34034;BME280;63481;52.588;22.472;2023-05-07T00:38:15;100909.79;;;6.53;69.73
34034;BME280;63481;52.588;22.472;2023-05-07T00:38:47;100914.63;;;6.51;69.81
34034;BME280;63481;52.588;22.472;2023-05-07T00:39:19;100909.10;;;6.51;69.85
34034;BME280;63481;52.588;22.472;2023-05-07T00:39:51;100913.20;;;6.51;70.00
34034;BME280;63481;52.588;22.472;2023-05-07T00:40:23;100909.95;;;6.50;69.97
34034;BME280;63481;52.588;22.472;2023-05-07T00:40:55;100907.55;;;6.51;70.26
34034;BME280;63481;52.588;22.472;2023-05-07T00:41:27;100913.90;;;6.53;70.37
34034;BME280;63481;52.588;22.472;2023-05-07T00:41:59;100916.21;;;6.51;70.09
34034;BME280;63481;52.588;22.472;2023-05-07T00:42:32;100909.02;;;6.50;70.03
34034;BME280;63481;52.588;22.472;2023-05-07T00:43:04;100914.40;;;6.52;70.46
34034;BME280;63481;52.588;22.472;2023-05-07T00:43:36;100918.17;;;6.51;70.30
34034;BME280;63481;52.588;22.472;2023-05-07T00:44:08;100918.79;;;6.45;70.41
34034;BME280;63481;52.588;22.472;2023-05-07T00:44:40;100917.27;;;6.43;70.65
34034;BME280;63481;52.588;22.472;2023-05-07T00:45:15;100917.17;;;6.44;70.62
34034;BME280;63481;52.588;22.472;2023-05-07T00:45:48;100915.98;;;6.45;70.90
34034;BME280;63481;52.588;22.472;2023-05-07T00:46:21;100917.50;;;6.46;70.74
34034;BME280;63481;52.588;22.472;2023-05-07T00:46:53;100915.68;;;6.45;70.79
34034;BME280;63481;52.588;22.472;2023-05-07T00:47:25;100916.40;;;6.43;71.09
34034;BME280;63481;52.588;22.472;2023-05-07T00:48:00;100916.48;;;6.44;71.20
34034;BME280;63481;52.588;22.472;2023-05-07T00:48:32;100913.23;;;6.46;71.19
34034;BME280;63481;52.588;22.472;2023-05-07T00:49:05;100917.48;;;6.47;71.04
34034;BME280;63481;52.588;22.472;2023-05-07T00:49:39;100917.10;;;6.44;71.60
34034;BME280;63481;52.588;22.472;2023-05-07T00:50:15;100927.20;;;6.46;71.28
34034;BME280;63481;52.588;22.472;2023-05-07T00:50:48;100926.04;;;6.43;71.63
34034;BME280;63481;52.588;22.472;2023-05-07T00:51:20;100919.77;;;6.41;71.52
34034;BME280;63481;52.588;22.472;2023-05-07T00:51:53;100924.96;;;6.39;71.88
34034;BME280;63481;52.588;22.472;2023-05-07T00:52:25;100924.92;;;6.36;71.69
34034;BME280;63481;52.588;22.472;2023-05-07T00:52:58;100919.77;;;6.36;72.20
34034;BME280;63481;52.588;22.472;2023-05-07T00:53:31;100925.34;;;6.40;72.02
34034;BME280;63481;52.588;22.472;2023-05-07T00:54:03;100929.27;;;6.40;71.87
34034;BME280;63481;52.588;22.472;2023-05-07T00:54:35;100930.77;;;6.37;72.06
34034;BME280;63481;52.588;22.472;2023-05-07T00:55:08;100933.24;;;6.34;72.35
34034;BME280;63481;52.588;22.472;2023-05-07T00:55:40;100934.42;;;6.29;72.56
34034;BME280;63481;52.588;22.472;2023-05-07T00:56:12;100928.19;;;6.27;72.63
34034;BME280;63481;52.588;22.472;2023-05-07T00:56:44;100927.92;;;6.28;72.80
34034;BME280;63481;52.588;22.472;2023-05-07T00:57:16;100930.20;;;6.26;72.91
34034;BME280;63481;52.588;22.472;2023-05-07T00:57:49;100928.26;;;6.25;73.15
34034;BME280;63481;52.588;22.472;2023-05-07T00:58:22;100931.52;;;6.22;73.24
34034;BME280;63481;52.588;22.472;2023-05-07T00:58:55;100929.73;;;6.19;73.56
34034;BME280;63481;52.588;22.472;2023-05-07T00:59:27;100935.38;;;6.18;73.56
34034;BME280;63481;52.588;22.472;2023-05-07T00:59:59;100939.03;;;6.21;73.44
34034;BME280;63481;52.588;22.472;2023-05-07T01:00:31;100932.90;;;6.19;73.49
34034;BME280;63481;52.588;22.472;2023-05-07T01:01:03;100932.37;;;6.19;73.57
34034;BME280;63481;52.588;22.472;2023-05-07T01:01:35;100938.56;;;6.19;73.62
34034;BME280;63481;52.588;22.472;2023-05-07T01:02:08;100932.44;;;6.18;73.75
34034;BME280;63481;52.588;22.472;2023-05-07T01:02:41;100936.23;;;6.16;74.12
34034;BME280;63481;52.588;22.472;2023-05-07T01:03:13;100932.34;;;6.16;73.98
34034;BME280;63481;52.588;22.472;2023-05-07T01:03:45;100936.05;;;6.16;73.82
34034;BME280;63481;52.588;22.472;2023-05-07T01:04:17;100933.55;;;6.13;74.25
34034;BME280;63481;52.588;22.472;2023-05-07T01:04:49;100946.89;;;6.14;74.05
34034;BME280;63481;52.588;22.472;2023-05-07T01:05:23;100938.09;;;6.14;74.45
34034;BME280;63481;52.588;22.472;2023-05-07T01:05:58;100947.40;;;6.09;74.47
34034;BME280;63481;52.588;22.472;2023-05-07T01:06:31;100937.44;;;6.10;74.43
34034;BME280;63481;52.588;22.472;2023-05-07T01:07:04;100944.34;;;6.08;74.49
34034;BME280;63481;52.588;22.472;2023-05-07T01:07:38;100941.59;;;6.06;75.03
34034;BME280;63481;52.588;22.472;2023-05-07T01:08:12;100947.66;;;6.01;75.52
34034;BME280;63481;52.588;22.472;2023-05-07T01:08:44;100951.27;;;6.01;75.56
34034;BME280;63481;52.588;22.472;2023-05-07T01:09:17;100947.44;;;6.02;75.56
34034;BME280;63481;52.588;22.472;2023-05-07T01:09:49;100941.27;;;6.00;75.71
34034;BME280;63481;52.588;22.472;2023-05-07T01:10:22;100950.64;;;5.98;76.11
34034;BME280;63481;52.588;22.472;2023-05-07T01:10:55;100947.80;;;5.95;76.09
34034;BME280;63481;52.588;22.472;2023-05-07T01:11:27;100952.63;;;5.91;76.27
34034;BME280;63481;52.588;22.472;2023-05-07T01:12:00;100950.47;;;5.89;76.44
34034;BME280;63481;52.588;22.472;2023-05-07T01:12:32;100946.96;;;5.89;76.61
34034;BME280;63481;52.588;22.472;2023-05-07T01:13:05;100949.75;;;5.90;76.59
34034;BME280;63481;52.588;22.472;2023-05-07T01:13:38;100953.86;;;5.86;76.53
34034;BME280;63481;52.588;22.472;2023-05-07T01:14:10;100951.79;;;5.85;76.65
34034;BME280;63481;52.588;22.472;2023-05-07T01:14:43;100955.39;;;5.85;77.18
34034;BME280;63481;52.588;22.472;2023-05-07T01:15:15;100950.69;;;5.84;77.45
34034;BME280;63481;52.588;22.472;2023-05-07T01:15:47;100949.95;;;5.84;77.54
34034;BME280;63481;52.588;22.472;2023-05-07T01:16:19;100949.50;;;5.83;77.42
34034;BME280;63481;52.588;22.472;2023-05-07T01:16:52;100951.36;;;5.82;77.76
34034;BME280;63481;52.588;22.472;2023-05-07T01:17:25;100953.27;;;5.85;78.16
34034;BME280;63481;52.588;22.472;2023-05-07T01:17:57;100950.58;;;5.83;77.82
34034;BME280;63481;52.588;22.472;2023-05-07T01:18:34;100953.73;;;5.80;78.21
34034;BME280;63481;52.588;22.472;2023-05-07T01:19:08;100950.14;;;5.76;78.40
34034;BME280;63481;52.588;22.472;2023-05-07T01:19:40;100948.54;;;5.75;78.64
34034;BME280;63481;52.588;22.472;2023-05-07T01:20:12;100952.73;;;5.74;78.77
34034;BME280;63481;52.588;22.472;2023-05-07T01:20:44;100956.26;;;5.71;79.11
34034;BME280;63481;52.588;22.472;2023-05-07T01:21:17;100953.12;;;5.71;78.96
34034;BME280;63481;52.588;22.472;2023-05-07T01:21:51;100959.30;;;5.71;78.98
34034;BME280;63481;52.588;22.472;2023-05-07T01:22:31;100952.63;;;5.70;78.56
34034;BME280;63481;52.588;22.472;2023-05-07T01:23:05;100954.27;;;5.70;78.64
34034;BME280;63481;52.588;22.472;2023-05-07T01:23:39;100952.80;;;5.67;79.24
34034;BME280;63481;52.588;22.472;2023-05-07T01:24:11;100954.98;;;5.66;79.54
34034;BME280;63481;52.588;22.472;2023-05-07T01:24:43;100956.15;;;5.67;79.69
34034;BME280;63481;52.588;22.472;2023-05-07T01:25:16;100955.64;;;5.65;79.40
34034;BME280;63481;52.588;22.472;2023-05-07T01:25:52;100952.73;;;5.63;79.73
34034;BME280;63481;52.588;22.472;2023-05-07T01:26:25;100956.09;;;5.61;80.23
34034;BME280;63481;52.588;22.472;2023-05-07T01:26:57;100961.11;;;5.58;79.77
34034;BME280;63481;52.588;22.472;2023-05-07T01:27:29;100957.27;;;5.58;80.12
34034;BME280;63481;52.588;22.472;2023-05-07T01:28:01;100954.94;;;5.59;80.00
34034;BME280;63481;52.588;22.472;2023-05-07T01:28:36;100964.07;;;5.59;80.21
34034;BME280;63481;52.588;22.472;2023-05-07T01:29:07;100954.69;;;5.57;80.39
34034;BME280;63481;52.588;22.472;2023-05-07T01:29:40;100962.70;;;5.58;80.35
34034;BME280;63481;52.588;22.472;2023-05-07T01:30:12;100959.90;;;5.58;80.94
34034;BME280;63481;52.588;22.472;2023-05-07T01:30:52;100961.23;;;5.57;81.16
34034;BME280;63481;52.588;22.472;2023-05-07T01:31:25;100963.78;;;5.55;80.97
34034;BME280;63481;52.588;22.472;2023-05-07T01:31:59;100968.52;;;5.57;81.02
34034;BME280;63481;52.588;22.472;2023-05-07T01:32:49;100963.68;;;5.56;81.11
34034;BME280;63481;52.588;22.472;2023-05-07T01:33:23;100975.77;;;5.53;81.10
34034;BME280;63481;52.588;22.472;2023-05-07T01:33:58;100966.30;;;5.52;81.32
34034;BME280;63481;52.588;22.472;2023-05-07T01:34:32;100969.14;;;5.51;81.42
34034;BME280;63481;52.588;22.472;2023-05-07T01:35:07;100971.92;;;5.48;81.46
34034;BME280;63481;52.588;22.472;2023-05-07T01:35:43;100967.26;;;5.47;81.84
34034;BME280;63481;52.588;22.472;2023-05-07T01:36:17;100974.52;;;5.43;81.60
34034;BME280;63481;52.588;22.472;2023-05-07T01:36:50;100972.91;;;5.40;81.63
34034;BME280;63481;52.588;22.472;2023-05-07T01:37:23;100968.52;;;5.39;81.53
34034;BME280;63481;52.588;22.472;2023-05-07T01:37:56;100974.87;;;5.41;82.12
34034;BME280;63481;52.588;22.472;2023-05-07T01:38:28;100977.02;;;5.43;81.48
34034;BME280;63481;52.588;22.472;2023-05-07T01:39:01;100971.85;;;5.41;81.63
34034;BME280;63481;52.588;22.472;2023-05-07T01:39:33;100969.26;;;5.37;81.98
34034;BME280;63481;52.588;22.472;2023-05-07T01:40:06;100969.02;;;5.38;82.02
34034;BME280;63481;52.588;22.472;2023-05-07T01:40:39;100969.70;;;5.36;82.15
34034;BME280;63481;52.588;22.472;2023-05-07T01:41:12;100964.31;;;5.36;82.31
34034;BME280;63481;52.588;22.472;2023-05-07T01:41:45;100966.83;;;5.35;82.51
34034;BME280;63481;52.588;22.472;2023-05-07T01:42:18;100971.42;;;5.35;82.55
34034;BME280;63481;52.588;22.472;2023-05-07T01:42:50;100965.42;;;5.33;82.51
34034;BME280;63481;52.588;22.472;2023-05-07T01:43:22;100969.66;;;5.30;82.88
34034;BME280;63481;52.588;22.472;2023-05-07T01:43:54;100964.09;;;5.27;83.26
34034;BME280;63481;52.588;22.472;2023-05-07T01:44:27;100963.38;;;5.24;83.24
34034;BME280;63481;52.588;22.472;2023-05-07T01:44:59;100967.86;;;5.27;83.36
34034;BME280;63481;52.588;22.472;2023-05-07T01:45:32;100964.80;;;5.26;83.08
34034;BME280;63481;52.588;22.472;2023-05-07T01:46:04;100969.38;;;5.22;83.08
34034;BME280;63481;52.588;22.472;2023-05-07T01:46:36;100966.71;;;5.19;83.13
34034;BME280;63481;52.588;22.472;2023-05-07T01:47:08;100968.94;;;5.16;83.37
34034;BME280;63481;52.588;22.472;2023-05-07T01:47:41;100964.21;;;5.16;83.77
34034;BME280;63481;52.588;22.472;2023-05-07T01:48:15;100965.05;;;5.15;83.54
34034;BME280;63481;52.588;22.472;2023-05-07T01:48:47;100965.50;;;5.16;84.26
34034;BME280;63481;52.588;22.472;2023-05-07T01:49:19;100967.36;;;5.14;83.92
34034;BME280;63481;52.588;22.472;2023-05-07T01:49:52;100962.08;;;5.13;83.90
34034;BME280;63481;52.588;22.472;2023-05-07T01:50:25;100962.97;;;5.14;84.14
34034;BME280;63481;52.588;22.472;2023-05-07T01:50:58;100966.73;;;5.14;84.42
34034;BME280;63481;52.588;22.472;2023-05-07T01:51:30;100961.68;;;5.13;83.98
34034;BME280;63481;52.588;22.472;2023-05-07T01:52:03;100961.67;;;5.13;83.94
34034;BME280;63481;52.588;22.472;2023-05-07T01:52:37;100963.41;;;5.15;84.03
34034;BME280;63481;52.588;22.472;2023-05-07T01:53:10;100961.52;;;5.13;84.63
34034;BME280;63481;52.588;22.472;2023-05-07T01:53:42;100966.98;;;5.08;84.75
34034;BME280;63481;52.588;22.472;2023-05-07T01:54:15;100965.18;;;5.05;85.19
34034;BME280;63481;52.588;22.472;2023-05-07T01:54:48;100973.20;;;5.04;85.07
34034;BME280;63481;52.588;22.472;2023-05-07T01:55:20;100965.79;;;5.02;85.41
34034;BME280;63481;52.588;22.472;2023-05-07T01:55:52;100962.81;;;5.02;86.08
34034;BME280;63481;52.588;22.472;2023-05-07T01:56:26;100962.59;;;5.04;86.37
34034;BME280;63481;52.588;22.472;2023-05-07T01:56:58;100961.38;;;5.01;86.43
34034;BME280;63481;52.588;22.472;2023-05-07T01:57:30;100962.62;;;4.99;86.80
34034;BME280;63481;52.588;22.472;2023-05-07T01:58:03;100963.27;;;4.98;86.94
34034;BME280;63481;52.588;22.472;2023-05-07T01:58:35;100965.28;;;4.95;87.10
34034;BME280;63481;52.588;22.472;2023-05-07T01:59:07;100968.35;;;4.93;87.28
34034;BME280;63481;52.588;22.472;2023-05-07T01:59:38;100966.42;;;4.87;87.46
34034;BME280;63481;52.588;22.472;2023-05-07T02:00:11;100967.77;;;4.86;87.61
34034;BME280;63481;52.588;22.472;2023-05-07T02:00:50;100971.30;;;4.90;87.92
34034;BME280;63481;52.588;22.472;2023-05-07T02:01:22;100967.89;;;4.90;87.82
34034;BME280;63481;52.588;22.472;2023-05-07T02:01:54;100970.70;;;4.89;88.05
34034;BME280;63481;52.588;22.472;2023-05-07T02:02:26;100968.02;;;4.89;87.68
34034;BME280;63481;52.588;22.472;2023-05-07T02:02:58;100966.64;;;4.89;88.15
34034;BME280;63481;52.588;22.472;2023-05-07T02:03:36;100968.92;;;4.87;88.30
34034;BME280;63481;52.588;22.472;2023-05-07T02:04:11;100968.73;;;4.86;88.36
34034;BME280;63481;52.588;22.472;2023-05-07T02:04:43;100968.88;;;4.86;88.60
34034;BME280;63481;52.588;22.472;2023-05-07T02:05:15;100968.88;;;4.86;88.98
34034;BME280;63481;52.588;22.472;2023-05-07T02:05:48;100968.73;;;4.84;88.72
34034;BME280;63481;52.588;22.472;2023-05-07T02:06:40;100970.48;;;4.87;89.03
34034;BME280;63481;52.588;22.472;2023-05-07T02:07:13;100971.09;;;4.88;88.85
34034;BME280;63481;52.588;22.472;2023-05-07T02:07:45;100966.36;;;4.86;88.83
34034;BME280;63481;52.588;22.472;2023-05-07T02:08:17;100967.20;;;4.89;88.89
34034;BME280;63481;52.588;22.472;2023-05-07T02:08:49;100971.80;;;4.88;89.15
34034;BME280;63481;52.588;22.472;2023-05-07T02:09:21;100972.59;;;4.87;88.98
34034;BME280;63481;52.588;22.472;2023-05-07T02:09:54;100971.95;;;4.87;89.20
34034;BME280;63481;52.588;22.472;2023-05-07T02:10:29;100968.43;;;4.83;89.36
34034;BME280;63481;52.588;22.472;2023-05-07T02:11:01;100969.59;;;4.82;89.63
34034;BME280;63481;52.588;22.472;2023-05-07T02:11:34;100974.41;;;4.83;89.78
34034;BME280;63481;52.588;22.472;2023-05-07T02:12:06;100971.77;;;4.83;89.73
34034;BME280;63481;52.588;22.472;2023-05-07T02:12:38;100969.32;;;4.79;90.01
34034;BME280;63481;52.588;22.472;2023-05-07T02:13:10;100974.03;;;4.78;90.01
34034;BME280;63481;52.588;22.472;2023-05-07T02:13:42;100971.77;;;4.79;89.92
34034;BME280;63481;52.588;22.472;2023-05-07T02:14:14;100971.20;;;4.78;90.06
34034;BME280;63481;52.588;22.472;2023-05-07T02:14:47;100971.84;;;4.77;90.59
34034;BME280;63481;52.588;22.472;2023-05-07T02:15:19;100970.77;;;4.77;90.46
34034;BME280;63481;52.588;22.472;2023-05-07T02:15:51;100965.42;;;4.79;90.80
34034;BME280;63481;52.588;22.472;2023-05-07T02:16:24;100968.81;;;4.77;90.72
34034;BME280;63481;52.588;22.472;2023-05-07T02:16:56;100970.97;;;4.75;90.46
34034;BME280;63481;52.588;22.472;2023-05-07T02:17:28;100970.64;;;4.73;90.72
34034;BME280;63481;52.588;22.472;2023-05-07T02:18:05;100973.27;;;4.75;90.90
34034;BME280;63481;52.588;22.472;2023-05-07T02:18:38;100976.02;;;4.76;91.09
34034;BME280;63481;52.588;22.472;2023-05-07T02:19:10;100970.65;;;4.76;91.42
34034;BME280;63481;52.588;22.472;2023-05-07T02:19:42;100968.98;;;4.75;91.44
34034;BME280;63481;52.588;22.472;2023-05-07T02:20:14;100976.46;;;4.76;91.48
34034;BME280;63481;52.588;22.472;2023-05-07T02:20:47;100975.05;;;4.78;91.35
34034;BME280;63481;52.588;22.472;2023-05-07T02:21:19;100967.18;;;4.76;91.38
34034;BME280;63481;52.588;22.472;2023-05-07T02:21:51;100970.42;;;4.73;91.54
34034;BME280;63481;52.588;22.472;2023-05-07T02:22:23;100971.11;;;4.72;91.54
34034;BME280;63481;52.588;22.472;2023-05-07T02:22:56;100971.75;;;4.74;91.64
34034;BME280;63481;52.588;22.472;2023-05-07T02:23:31;100971.31;;;4.73;91.63
34034;BME280;63481;52.588;22.472;2023-05-07T02:24:03;100973.21;;;4.72;91.72
34034;BME280;63481;52.588;22.472;2023-05-07T02:24:35;100970.60;;;4.72;91.89
34034;BME280;63481;52.588;22.472;2023-05-07T02:25:07;100965.45;;;4.76;92.02
34034;BME280;63481;52.588;22.472;2023-05-07T02:25:40;100965.79;;;4.76;92.22
34034;BME280;63481;52.588;22.472;2023-05-07T02:26:12;100968.99;;;4.74;91.76
34034;BME280;63481;52.588;22.472;2023-05-07T02:26:44;100970.81;;;4.75;91.92
34034;BME280;63481;52.588;22.472;2023-05-07T02:27:16;100969.59;;;4.73;91.96
34034;BME280;63481;52.588;22.472;2023-05-07T02:27:49;100970.02;;;4.72;92.10
34034;BME280;63481;52.588;22.472;2023-05-07T02:28:22;100968.57;;;4.71;92.18
34034;BME280;63481;52.588;22.472;2023-05-07T02:28:56;100970.83;;;4.69;92.00
34034;BME280;63481;52.588;22.472;2023-05-07T02:29:29;100969.88;;;4.68;92.26
34034;BME280;63481;52.588;22.472;2023-05-07T02:30:01;100973.50;;;4.71;92.31
34034;BME280;63481;52.588;22.472;2023-05-07T02:30:33;100967.08;;;4.73;92.11
34034;BME280;63481;52.588;22.472;2023-05-07T02:31:06;100970.87;;;4.76;91.99
34034;BME280;63481;52.588;22.472;2023-05-07T02:31:38;100969.34;;;4.74;91.82
34034;BME280;63481;52.588;22.472;2023-05-07T02:32:10;100968.10;;;4.72;91.89
34034;BME280;63481;52.588;22.472;2023-05-07T02:32:42;100969.62;;;4.73;92.10
34034;BME280;63481;52.588;22.472;2023-05-07T02:33:14;100966.49;;;4.74;92.49
34034;BME280;63481;52.588;22.472;2023-05-07T02:33:46;100966.61;;;4.74;92.32
34034;BME280;63481;52.588;22.472;2023-05-07T02:34:19;100971.48;;;4.77;92.58
34034;BME280;63481;52.588;22.472;2023-05-07T02:34:51;100970.58;;;4.77;92.10
34034;BME280;63481;52.588;22.472;2023-05-07T02:35:26;100970.33;;;4.71;91.70
34034;BME280;63481;52.588;22.472;2023-05-07T02:36:11;100968.64;;;4.70;91.65
34034;BME280;63481;52.588;22.472;2023-05-07T02:37:09;100966.73;;;4.71;92.19
34034;BME280;63481;52.588;22.472;2023-05-07T02:37:41;100964.73;;;4.74;91.82
34034;BME280;63481;52.588;22.472;2023-05-07T02:38:13;100968.99;;;4.73;91.75
34034;BME280;63481;52.588;22.472;2023-05-07T02:38:45;100965.20;;;4.71;91.94
34034;BME280;63481;52.588;22.472;2023-05-07T02:39:17;100966.52;;;4.68;92.45
34034;BME280;63481;52.588;22.472;2023-05-07T02:39:49;100969.25;;;4.66;92.55
34034;BME280;63481;52.588;22.472;2023-05-07T02:40:22;100969.73;;;4.63;92.66
34034;BME280;63481;52.588;22.472;2023-05-07T02:40:54;100968.16;;;4.64;93.01
34034;BME280;63481;52.588;22.472;2023-05-07T02:41:26;100968.92;;;4.66;93.12
34034;BME280;63481;52.588;22.472;2023-05-07T02:41:59;100971.67;;;4.63;93.34
34034;BME280;63481;52.588;22.472;2023-05-07T02:42:32;100964.95;;;4.61;93.33
34034;BME280;63481;52.588;22.472;2023-05-07T02:43:04;100965.83;;;4.63;93.58
34034;BME280;63481;52.588;22.472;2023-05-07T02:43:37;100965.81;;;4.65;93.71
34034;BME280;63481;52.588;22.472;2023-05-07T02:44:10;100968.53;;;4.66;93.53
34034;BME280;63481;52.588;22.472;2023-05-07T02:44:42;100967.77;;;4.68;93.45
34034;BME280;63481;52.588;22.472;2023-05-07T02:45:14;100968.95;;;4.69;93.23
34034;BME280;63481;52.588;22.472;2023-05-07T02:45:47;100967.42;;;4.65;92.84
34034;BME280;63481;52.588;22.472;2023-05-07T02:46:19;100968.75;;;4.64;93.00
34034;BME280;63481;52.588;22.472;2023-05-07T02:46:53;100967.61;;;4.63;93.03
34034;BME280;63481;52.588;22.472;2023-05-07T02:47:25;100973.08;;;4.61;93.22
34034;BME280;63481;52.588;22.472;2023-05-07T02:48:01;100971.26;;;4.63;93.31
34034;BME280;63481;52.588;22.472;2023-05-07T02:48:33;100970.81;;;4.61;93.09
34034;BME280;63481;52.588;22.472;2023-05-07T02:49:06;100973.89;;;4.60;93.49
34034;BME280;63481;52.588;22.472;2023-05-07T02:49:39;100972.66;;;4.58;93.17
34034;BME280;63481;52.588;22.472;2023-05-07T02:50:11;100980.61;;;4.61;93.00
34034;BME280;63481;52.588;22.472;2023-05-07T02:50:43;100974.93;;;4.65;93.04
34034;BME280;63481;52.588;22.472;2023-05-07T02:51:20;100975.48;;;4.65;92.76
34034;BME280;63481;52.588;22.472;2023-05-07T02:51:52;100978.39;;;4.64;92.67
34034;BME280;63481;52.588;22.472;2023-05-07T02:52:26;100973.75;;;4.63;92.55